sensor_id;sensor_type;location;lat;lon;timestamp;temperature;humidity
15666;DHT22;20725;51.196;3.510;2022-11-20T00:00:50;5.10;99.90
15666;DHT22;20725;51.196;3.510;2022-11-20T00:03:30;5.10;99.90
15666;DHT22;20725;51.196;3.510;2022-11-20T00:06:15;5.00;99.90
15666;DHT22;20725;51.196;3.510;2022-11-20T00:08:46;5.00;99.90
15666;DHT22;20725;51.196;3.510;2022-11-20T00:11:20;5.00;99.90
15666;DHT22;20725;51.196;3.510;2022-11-20T00:13:53;5.00;99.90
15666;DHT22;20725;51.196;3.510;2022-11-20T00:16:33;5.10;99.90
15666;DHT22;20725;51.196;3.510;2022-11-20T00:19:07;5.00;99.90
15666;DHT22;20725;51.196;3.510;2022-11-20T00:21:52;5.00;99.90
15666;DHT22;20725;51.196;3.510;2022-11-20T00:24:28;5.00;99.90
15666;DHT22;20725;51.196;3.510;2022-11-20T00:27:05;5.00;99.90
15666;DHT22;20725;51.196;3.510;2022-11-20T00:29:50;5.00;99.90
15666;DHT22;20725;51.196;3.510;2022-11-20T00:32:29;5.00;99.90
15666;DHT22;20725;51.196;3.510;2022-11-20T00:35:48;5.00;99.90
15666;DHT22;20725;51.196;3.510;2022-11-20T00:38:21;5.00;99.90
15666;DHT22;20725;51.196;3.510;2022-11-20T00:41:12;5.00;99.90
15666;DHT22;20725;51.196;3.510;2022-11-20T00:43:48;5.00;99.90
15666;DHT22;20725;51.196;3.510;2022-11-20T00:49:30;5.00;99.90
15666;DHT22;20725;51.196;3.510;2022-11-20T00:52:03;5.00;99.90
15666;DHT22;20725;51.196;3.510;2022-11-20T00:54:37;4.90;99.90
15666;DHT22;20725;51.196;3.510;2022-11-20T00:57:22;4.90;99.90
15666;DHT22;20725;51.196;3.510;2022-11-20T01:00:02;4.90;99.90
15666;DHT22;20725;51.196;3.510;2022-11-20T01:02:36;4.80;99.90
15666;DHT22;20725;51.196;3.510;2022-11-20T01:05:08;4.90;99.90
15666;DHT22;20725;51.196;3.510;2022-11-20T01:07:53;4.80;99.90
15666;DHT22;20725;51.196;3.510;2022-11-20T01:10:34;4.80;99.90
15666;DHT22;20725;51.196;3.510;2022-11-20T01:13:03;4.90;99.90
15666;DHT22;20725;51.196;3.510;2022-11-20T01:15:50;4.90;99.90
15666;DHT22;20725;51.196;3.510;2022-11-20T01:18:36;4.80;99.90
15666;DHT22;20725;51.196;3.510;2022-11-20T01:21:14;4.80;99.90
15666;DHT22;20725;51.196;3.510;2022-11-20T01:24:07;4.80;99.90
15666;DHT22;20725;51.196;3.510;2022-11-20T01:26:40;4.80;99.90
15666;DHT22;20725;51.196;3.510;2022-11-20T01:29:24;4.70;99.90
15666;DHT22;20725;51.196;3.510;2022-11-20T01:32:01;4.70;99.90
15666;DHT22;20725;51.196;3.510;2022-11-20T01:34:41;4.70;99.90
15666;DHT22;20725;51.196;3.510;2022-11-20T01:37:25;4.70;99.90
15666;DHT22;20725;51.196;3.510;2022-11-20T01:40:12;4.50;99.90
15666;DHT22;20725;51.196;3.510;2022-11-20T01:42:47;4.60;99.90
15666;DHT22;20725;51.196;3.510;2022-11-20T01:46:19;4.50;99.90
15666;DHT22;20725;51.196;3.510;2022-11-20T01:48:52;4.30;99.90
15666;DHT22;20725;51.196;3.510;2022-11-20T01:51:30;4.20;99.90
15666;DHT22;20725;51.196;3.510;2022-11-20T01:54:07;4.20;99.90
15666;DHT22;20725;51.196;3.510;2022-11-20T01:56:51;4.20;99.90
15666;DHT22;20725;51.196;3.510;2022-11-20T01:59:32;4.30;99.90
15666;DHT22;20725;51.196;3.510;2022-11-20T02:02:04;4.30;99.90
15666;DHT22;20725;51.196;3.510;2022-11-20T02:04:34;4.40;99.90
15666;DHT22;20725;51.196;3.510;2022-11-20T02:07:10;4.40;99.90
15666;DHT22;20725;51.196;3.510;2022-11-20T02:09:50;4.50;99.90
15666;DHT22;20725;51.196;3.510;2022-11-20T02:12:23;4.50;99.90
15666;DHT22;20725;51.196;3.510;2022-11-20T02:15:20;4.50;99.90
15666;DHT22;20725;51.196;3.510;2022-11-20T02:18:12;4.50;99.90
15666;DHT22;20725;51.196;3.510;2022-11-20T02:20:48;4.50;99.90
15666;DHT22;20725;51.196;3.510;2022-11-20T02:24:05;4.50;99.90
15666;DHT22;20725;51.196;3.510;2022-11-20T02:26:49;4.60;99.90
15666;DHT22;20725;51.196;3.510;2022-11-20T02:29:40;4.60;99.90
15666;DHT22;20725;51.196;3.510;2022-11-20T02:32:18;4.50;99.90
15666;DHT22;20725;51.196;3.510;2022-11-20T02:37:41;4.40;99.90
15666;DHT22;20725;51.196;3.510;2022-11-20T02:40:29;4.40;99.90
15666;DHT22;20725;51.196;3.510;2022-11-20T02:43:10;4.40;99.90
15666;DHT22;20725;51.196;3.510;2022-11-20T02:45:46;4.30;99.90
15666;DHT22;20725;51.196;3.510;2022-11-20T02:48:33;4.30;99.90
15666;DHT22;20725;51.196;3.510;2022-11-20T02:51:01;4.40;99.90
15666;DHT22;20725;51.196;3.510;2022-11-20T02:53:31;4.40;99.90
15666;DHT22;20725;51.196;3.510;2022-11-20T02:56:07;4.30;99.90
15666;DHT22;20725;51.196;3.510;2022-11-20T02:59:02;4.30;99.90
15666;DHT22;20725;51.196;3.510;2022-11-20T03:01:46;4.40;99.90
15666;DHT22;20725;51.196;3.510;2022-11-20T03:04:26;4.30;99.90
15666;DHT22;20725;51.196;3.510;2022-11-20T03:06:59;4.30;99.90
15666;DHT22;20725;51.196;3.510;2022-11-20T03:09:34;4.40;99.90
15666;DHT22;20725;51.196;3.510;2022-11-20T03:12:10;4.40;99.90
15666;DHT22;20725;51.196;3.510;2022-11-20T03:15:03;4.30;99.90
15666;DHT22;20725;51.196;3.510;2022-11-20T03:17:52;4.20;99.90
15666;DHT22;20725;51.196;3.510;2022-11-20T03:20:23;4.10;99.90
15666;DHT22;20725;51.196;3.510;2022-11-20T03:26:06;4.20;99.90
15666;DHT22;20725;51.196;3.510;2022-11-20T03:31:54;4.20;99.90
15666;DHT22;20725;51.196;3.510;2022-11-20T03:34:41;4.20;99.90
15666;DHT22;20725;51.196;3.510;2022-11-20T03:37:11;4.30;99.90
15666;DHT22;20725;51.196;3.510;2022-11-20T03:40:05;4.30;99.90
15666;DHT22;20725;51.196;3.510;2022-11-20T03:42:41;4.30;99.90
15666;DHT22;20725;51.196;3.510;2022-11-20T03:45:20;4.30;99.90
15666;DHT22;20725;51.196;3.510;2022-11-20T03:47:59;4.30;99.90
15666;DHT22;20725;51.196;3.510;2022-11-20T03:50:43;4.30;99.90
15666;DHT22;20725;51.196;3.510;2022-11-20T03:53:19;4.30;99.90
15666;DHT22;20725;51.196;3.510;2022-11-20T03:56:02;4.30;99.90
15666;DHT22;20725;51.196;3.510;2022-11-20T03:58:47;4.40;99.90
15666;DHT22;20725;51.196;3.510;2022-11-20T04:01:31;4.40;99.90
15666;DHT22;20725;51.196;3.510;2022-11-20T04:04:03;4.30;99.90
15666;DHT22;20725;51.196;3.510;2022-11-20T04:06:46;4.20;99.90
15666;DHT22;20725;51.196;3.510;2022-11-20T04:09:23;4.30;99.90
15666;DHT22;20725;51.196;3.510;2022-11-20T04:12:04;4.30;99.90
15666;DHT22;20725;51.196;3.510;2022-11-20T04:14:41;4.30;99.90
15666;DHT22;20725;51.196;3.510;2022-11-20T04:17:32;4.20;99.90
15666;DHT22;20725;51.196;3.510;2022-11-20T04:20:16;4.10;99.90
15666;DHT22;20725;51.196;3.510;2022-11-20T04:22:47;4.00;99.90
15666;DHT22;20725;51.196;3.510;2022-11-20T04:25:20;3.90;99.90
15666;DHT22;20725;51.196;3.510;2022-11-20T04:28:05;3.80;99.90
15666;DHT22;20725;51.196;3.510;2022-11-20T04:30:40;3.80;99.90
15666;DHT22;20725;51.196;3.510;2022-11-20T04:33:15;3.70;99.90
15666;DHT22;20725;51.196;3.510;2022-11-20T04:35:48;3.70;99.90
15666;DHT22;20725;51.196;3.510;2022-11-20T04:38:39;3.70;99.90
15666;DHT22;20725;51.196;3.510;2022-11-20T04:41:15;3.80;99.90
15666;DHT22;20725;51.196;3.510;2022-11-20T04:43:47;3.80;99.90
15666;DHT22;20725;51.196;3.510;2022-11-20T04:46:30;3.80;99.90
15666;DHT22;20725;51.196;3.510;2022-11-20T04:49:31;3.80;99.90
15666;DHT22;20725;51.196;3.510;2022-11-20T04:52:03;3.70;99.90
15666;DHT22;20725;51.196;3.510;2022-11-20T04:54:40;3.70;99.90
15666;DHT22;20725;51.196;3.510;2022-11-20T04:57:30;3.80;99.90
15666;DHT22;20725;51.196;3.510;2022-11-20T05:00:05;3.80;99.90
15666;DHT22;20725;51.196;3.510;2022-11-20T05:02:52;3.70;99.90
15666;DHT22;20725;51.196;3.510;2022-11-20T05:05:34;3.70;99.90
15666;DHT22;20725;51.196;3.510;2022-11-20T05:08:07;3.60;99.90
15666;DHT22;20725;51.196;3.510;2022-11-20T05:10:37;3.70;99.90
15666;DHT22;20725;51.196;3.510;2022-11-20T05:13:09;3.70;99.90
15666;DHT22;20725;51.196;3.510;2022-11-20T05:15:46;3.90;99.90
15666;DHT22;20725;51.196;3.510;2022-11-20T05:18:16;3.80;99.90
15666;DHT22;20725;51.196;3.510;2022-11-20T05:20:48;3.90;99.90
15666;DHT22;20725;51.196;3.510;2022-11-20T05:23:53;4.00;99.90
15666;DHT22;20725;51.196;3.510;2022-11-20T05:26:40;4.10;99.90
15666;DHT22;20725;51.196;3.510;2022-11-20T05:29:35;4.20;99.90
15666;DHT22;20725;51.196;3.510;2022-11-20T05:32:14;4.10;99.90
15666;DHT22;20725;51.196;3.510;2022-11-20T05:34:46;4.10;99.90
15666;DHT22;20725;51.196;3.510;2022-11-20T05:37:28;4.10;99.90
15666;DHT22;20725;51.196;3.510;2022-11-20T05:40:16;4.10;99.90
15666;DHT22;20725;51.196;3.510;2022-11-20T05:42:47;4.20;99.90
15666;DHT22;20725;51.196;3.510;2022-11-20T05:45:25;4.20;99.90
15666;DHT22;20725;51.196;3.510;2022-11-20T05:48:00;4.30;99.90
15666;DHT22;20725;51.196;3.510;2022-11-20T05:50:43;4.20;99.90
15666;DHT22;20725;51.196;3.510;2022-11-20T05:53:21;4.30;99.90
15666;DHT22;20725;51.196;3.510;2022-11-20T05:56:14;4.30;99.90
15666;DHT22;20725;51.196;3.510;2022-11-20T05:59:04;4.40;99.90
15666;DHT22;20725;51.196;3.510;2022-11-20T06:01:58;4.30;99.90
15666;DHT22;20725;51.196;3.510;2022-11-20T06:04:57;4.40;99.90
15666;DHT22;20725;51.196;3.510;2022-11-20T06:07:45;4.40;99.90
15666;DHT22;20725;51.196;3.510;2022-11-20T06:10:22;4.30;99.90
15666;DHT22;20725;51.196;3.510;2022-11-20T06:13:11;4.30;99.90
15666;DHT22;20725;51.196;3.510;2022-11-20T06:15:55;4.40;99.90
15666;DHT22;20725;51.196;3.510;2022-11-20T06:18:52;4.50;99.90
15666;DHT22;20725;51.196;3.510;2022-11-20T06:21:29;4.50;99.90
15666;DHT22;20725;51.196;3.510;2022-11-20T06:24:02;4.60;99.90
15666;DHT22;20725;51.196;3.510;2022-11-20T06:26:30;4.60;99.90
15666;DHT22;20725;51.196;3.510;2022-11-20T06:29:22;4.60;99.90
15666;DHT22;20725;51.196;3.510;2022-11-20T06:31:57;4.70;99.90
15666;DHT22;20725;51.196;3.510;2022-11-20T06:34:32;4.70;99.90
15666;DHT22;20725;51.196;3.510;2022-11-20T06:37:08;4.80;99.90
15666;DHT22;20725;51.196;3.510;2022-11-20T06:40:00;4.70;99.90
15666;DHT22;20725;51.196;3.510;2022-11-20T06:42:46;4.70;99.90
15666;DHT22;20725;51.196;3.510;2022-11-20T06:45:19;4.70;99.90
15666;DHT22;20725;51.196;3.510;2022-11-20T06:47:57;4.70;99.90
15666;DHT22;20725;51.196;3.510;2022-11-20T06:50:29;4.70;99.90
15666;DHT22;20725;51.196;3.510;2022-11-20T06:53:03;4.80;99.90
15666;DHT22;20725;51.196;3.510;2022-11-20T06:55:36;4.80;99.90
15666;DHT22;20725;51.196;3.510;2022-11-20T06:58:17;4.90;99.90
15666;DHT22;20725;51.196;3.510;2022-11-20T07:01:03;5.00;99.90
15666;DHT22;20725;51.196;3.510;2022-11-20T07:03:48;4.90;99.90
15666;DHT22;20725;51.196;3.510;2022-11-20T07:06:21;5.00;99.90
15666;DHT22;20725;51.196;3.510;2022-11-20T07:08:53;5.00;99.90
15666;DHT22;20725;51.196;3.510;2022-11-20T07:11:34;5.00;99.90
15666;DHT22;20725;51.196;3.510;2022-11-20T07:14:43;5.00;99.90
15666;DHT22;20725;51.196;3.510;2022-11-20T07:17:42;5.00;99.90
15666;DHT22;20725;51.196;3.510;2022-11-20T07:20:23;5.10;99.90
15666;DHT22;20725;51.196;3.510;2022-11-20T07:23:17;5.10;99.90
15666;DHT22;20725;51.196;3.510;2022-11-20T07:25:52;5.10;99.90
15666;DHT22;20725;51.196;3.510;2022-11-20T07:28:48;5.20;99.90
15666;DHT22;20725;51.196;3.510;2022-11-20T07:31:47;5.10;99.90
15666;DHT22;20725;51.196;3.510;2022-11-20T07:34:17;5.10;99.90
15666;DHT22;20725;51.196;3.510;2022-11-20T07:37:03;5.20;99.90
15666;DHT22;20725;51.196;3.510;2022-11-20T07:39:54;5.20;99.90
15666;DHT22;20725;51.196;3.510;2022-11-20T07:42:28;5.30;99.90
15666;DHT22;20725;51.196;3.510;2022-11-20T07:45:05;5.20;99.90
15666;DHT22;20725;51.196;3.510;2022-11-20T07:47:45;5.40;99.90
15666;DHT22;20725;51.196;3.510;2022-11-20T07:50:28;5.30;99.90
15666;DHT22;20725;51.196;3.510;2022-11-20T07:53:14;5.30;99.90
15666;DHT22;20725;51.196;3.510;2022-11-20T07:55:48;5.50;99.90
15666;DHT22;20725;51.196;3.510;2022-11-20T07:59:35;5.40;99.90
15666;DHT22;20725;51.196;3.510;2022-11-20T08:01:46;5.50;99.90
15666;DHT22;20725;51.196;3.510;2022-11-20T08:04:29;5.40;99.90
15666;DHT22;20725;51.196;3.510;2022-11-20T08:07:21;5.50;99.90
15666;DHT22;20725;51.196;3.510;2022-11-20T08:09:50;5.60;99.90
15666;DHT22;20725;51.196;3.510;2022-11-20T08:12:57;5.60;99.90
15666;DHT22;20725;51.196;3.510;2022-11-20T08:15:47;5.50;99.90
15666;DHT22;20725;51.196;3.510;2022-11-20T08:18:31;5.50;99.90
15666;DHT22;20725;51.196;3.510;2022-11-20T08:21:06;5.60;99.90
15666;DHT22;20725;51.196;3.510;2022-11-20T08:37:20;5.60;99.90
15666;DHT22;20725;51.196;3.510;2022-11-20T08:39:54;5.40;99.90
15666;DHT22;20725;51.196;3.510;2022-11-20T08:42:46;5.40;99.90
15666;DHT22;20725;51.196;3.510;2022-11-20T08:45:38;5.40;99.90
15666;DHT22;20725;51.196;3.510;2022-11-20T08:48:19;5.40;99.90
15666;DHT22;20725;51.196;3.510;2022-11-20T08:51:02;5.40;99.90
15666;DHT22;20725;51.196;3.510;2022-11-20T08:53:51;5.40;99.90
15666;DHT22;20725;51.196;3.510;2022-11-20T08:56:53;5.50;99.90
15666;DHT22;20725;51.196;3.510;2022-11-20T08:59:29;5.40;99.90
15666;DHT22;20725;51.196;3.510;2022-11-20T09:02:14;5.50;99.90
15666;DHT22;20725;51.196;3.510;2022-11-20T09:04:57;5.50;99.90
15666;DHT22;20725;51.196;3.510;2022-11-20T09:07:40;5.50;99.90
15666;DHT22;20725;51.196;3.510;2022-11-20T09:17:01;5.70;99.90
15666;DHT22;20725;51.196;3.510;2022-11-20T09:19:45;5.90;99.90
15666;DHT22;20725;51.196;3.510;2022-11-20T09:22:14;6.00;99.90
15666;DHT22;20725;51.196;3.510;2022-11-20T09:25:06;6.10;99.90
15666;DHT22;20725;51.196;3.510;2022-11-20T09:27:58;6.20;99.90
15666;DHT22;20725;51.196;3.510;2022-11-20T09:30:45;6.30;99.90
15666;DHT22;20725;51.196;3.510;2022-11-20T09:33:43;6.40;99.90
15666;DHT22;20725;51.196;3.510;2022-11-20T09:36:25;6.40;99.90
15666;DHT22;20725;51.196;3.510;2022-11-20T09:39:09;6.60;99.90
15666;DHT22;20725;51.196;3.510;2022-11-20T09:42:18;6.60;99.90
15666;DHT22;20725;51.196;3.510;2022-11-20T09:45:18;6.80;99.90
15666;DHT22;20725;51.196;3.510;2022-11-20T09:48:16;6.90;99.90
15666;DHT22;20725;51.196;3.510;2022-11-20T09:51:07;7.20;99.90
15666;DHT22;20725;51.196;3.510;2022-11-20T09:54:04;7.50;99.90
15666;DHT22;20725;51.196;3.510;2022-11-20T09:57:02;7.60;99.90
15666;DHT22;20725;51.196;3.510;2022-11-20T09:59:39;7.60;99.90
15666;DHT22;20725;51.196;3.510;2022-11-20T10:02:27;7.80;99.90
15666;DHT22;20725;51.196;3.510;2022-11-20T10:05:19;7.60;99.90
15666;DHT22;20725;51.196;3.510;2022-11-20T10:08:19;7.80;99.90
15666;DHT22;20725;51.196;3.510;2022-11-20T10:11:05;7.80;99.90
15666;DHT22;20725;51.196;3.510;2022-11-20T10:14:06;7.80;99.90
15666;DHT22;20725;51.196;3.510;2022-11-20T10:17:01;8.00;99.90
15666;DHT22;20725;51.196;3.510;2022-11-20T10:19:47;8.00;99.90
15666;DHT22;20725;51.196;3.510;2022-11-20T10:22:51;8.20;99.90
15666;DHT22;20725;51.196;3.510;2022-11-20T10:26:08;8.10;99.90
15666;DHT22;20725;51.196;3.510;2022-11-20T10:29:06;8.00;99.90
15666;DHT22;20725;51.196;3.510;2022-11-20T10:35:03;8.10;99.90
15666;DHT22;20725;51.196;3.510;2022-11-20T10:38:04;8.30;99.90
15666;DHT22;20725;51.196;3.510;2022-11-20T10:40:56;8.30;99.90
15666;DHT22;20725;51.196;3.510;2022-11-20T10:43:52;8.60;99.90
15666;DHT22;20725;51.196;3.510;2022-11-20T10:46:25;9.00;99.90
15666;DHT22;20725;51.196;3.510;2022-11-20T10:49:30;9.20;99.90
15666;DHT22;20725;51.196;3.510;2022-11-20T10:52:21;9.40;99.90
15666;DHT22;20725;51.196;3.510;2022-11-20T10:55:01;10.00;99.90
15666;DHT22;20725;51.196;3.510;2022-11-20T10:57:57;10.30;99.90
15666;DHT22;20725;51.196;3.510;2022-11-20T11:00:31;10.60;99.90
15666;DHT22;20725;51.196;3.510;2022-11-20T11:03:22;10.50;99.90
15666;DHT22;20725;51.196;3.510;2022-11-20T11:06:10;10.90;99.90
15666;DHT22;20725;51.196;3.510;2022-11-20T11:08:58;11.20;99.90
15666;DHT22;20725;51.196;3.510;2022-11-20T11:11:31;10.80;99.90
15666;DHT22;20725;51.196;3.510;2022-11-20T11:14:14;10.60;99.90
15666;DHT22;20725;51.196;3.510;2022-11-20T11:17:22;10.10;99.90
15666;DHT22;20725;51.196;3.510;2022-11-20T11:20:14;9.50;99.90
15666;DHT22;20725;51.196;3.510;2022-11-20T11:22:47;9.20;99.90
15666;DHT22;20725;51.196;3.510;2022-11-20T11:25:37;8.60;99.90
15666;DHT22;20725;51.196;3.510;2022-11-20T11:28:21;8.30;99.90
15666;DHT22;20725;51.196;3.510;2022-11-20T11:31:02;8.30;99.90
15666;DHT22;20725;51.196;3.510;2022-11-20T11:34:11;8.20;99.90
15666;DHT22;20725;51.196;3.510;2022-11-20T11:36:56;8.10;99.90
15666;DHT22;20725;51.196;3.510;2022-11-20T11:39:41;7.90;99.90
15666;DHT22;20725;51.196;3.510;2022-11-20T11:42:19;7.80;99.90
15666;DHT22;20725;51.196;3.510;2022-11-20T11:44:50;7.80;99.90
15666;DHT22;20725;51.196;3.510;2022-11-20T11:47:36;7.60;99.90
15666;DHT22;20725;51.196;3.510;2022-11-20T11:50:27;7.50;99.90
15666;DHT22;20725;51.196;3.510;2022-11-20T11:53:14;7.40;99.90
15666;DHT22;20725;51.196;3.510;2022-11-20T11:55:47;7.30;99.90
15666;DHT22;20725;51.196;3.510;2022-11-20T11:58:39;7.30;99.90
15666;DHT22;20725;51.196;3.510;2022-11-20T12:01:43;7.20;99.90
15666;DHT22;20725;51.196;3.510;2022-11-20T12:04:29;7.20;99.90
15666;DHT22;20725;51.196;3.510;2022-11-20T12:10:19;7.50;99.90
15666;DHT22;20725;51.196;3.510;2022-11-20T12:12:55;7.00;99.90
15666;DHT22;20725;51.196;3.510;2022-11-20T12:15:46;6.90;99.90
15666;DHT22;20725;51.196;3.510;2022-11-20T12:18:31;6.80;99.90
15666;DHT22;20725;51.196;3.510;2022-11-20T12:21:17;6.80;99.90
15666;DHT22;20725;51.196;3.510;2022-11-20T12:30:29;7.20;99.90
15666;DHT22;20725;51.196;3.510;2022-11-20T12:33:32;6.90;99.90
15666;DHT22;20725;51.196;3.510;2022-11-20T12:36:29;7.00;99.90
15666;DHT22;20725;51.196;3.510;2022-11-20T12:39:43;6.80;99.90
15666;DHT22;20725;51.196;3.510;2022-11-20T12:46:34;7.30;99.90
15666;DHT22;20725;51.196;3.510;2022-11-20T12:49:41;7.00;99.90
15666;DHT22;20725;51.196;3.510;2022-11-20T12:52:40;7.10;99.90
15666;DHT22;20725;51.196;3.510;2022-11-20T12:55:36;7.40;99.90
15666;DHT22;20725;51.196;3.510;2022-11-20T12:58:31;7.00;99.90
15666;DHT22;20725;51.196;3.510;2022-11-20T13:07:31;6.90;99.90
15666;DHT22;20725;51.196;3.510;2022-11-20T13:10:19;7.00;99.90
15666;DHT22;20725;51.196;3.510;2022-11-20T13:13:22;7.30;99.90
15666;DHT22;20725;51.196;3.510;2022-11-20T13:16:08;7.30;99.90
15666;DHT22;20725;51.196;3.510;2022-11-20T13:18:49;7.20;99.90
15666;DHT22;20725;51.196;3.510;2022-11-20T13:21:38;7.50;99.90
15666;DHT22;20725;51.196;3.510;2022-11-20T13:24:31;7.20;99.90
15666;DHT22;20725;51.196;3.510;2022-11-20T13:27:27;7.50;99.90
15666;DHT22;20725;51.196;3.510;2022-11-20T13:30:18;7.40;99.90
15666;DHT22;20725;51.196;3.510;2022-11-20T13:33:22;7.30;99.90
15666;DHT22;20725;51.196;3.510;2022-11-20T13:39:02;7.60;99.90
15666;DHT22;20725;51.196;3.510;2022-11-20T13:45:02;7.50;99.90
15666;DHT22;20725;51.196;3.510;2022-11-20T13:47:36;7.50;99.90
15666;DHT22;20725;51.196;3.510;2022-11-20T13:50:45;7.30;99.90
15666;DHT22;20725;51.196;3.510;2022-11-20T13:56:44;7.70;99.90
15666;DHT22;20725;51.196;3.510;2022-11-20T13:59:45;7.40;99.90
15666;DHT22;20725;51.196;3.510;2022-11-20T14:02:57;7.60;99.90
15666;DHT22;20725;51.196;3.510;2022-11-20T14:05:58;7.60;99.90
15666;DHT22;20725;51.196;3.510;2022-11-20T14:08:34;7.60;99.90
15666;DHT22;20725;51.196;3.510;2022-11-20T14:11:24;8.10;99.90
15666;DHT22;20725;51.196;3.510;2022-11-20T14:14:13;8.20;99.90
15666;DHT22;20725;51.196;3.510;2022-11-20T14:17:05;8.00;99.90
15666;DHT22;20725;51.196;3.510;2022-11-20T14:20:00;8.00;99.90
15666;DHT22;20725;51.196;3.510;2022-11-20T14:23:09;8.50;99.90
15666;DHT22;20725;51.196;3.510;2022-11-20T14:25:54;8.80;99.90
15666;DHT22;20725;51.196;3.510;2022-11-20T14:28:47;9.70;99.90
15666;DHT22;20725;51.196;3.510;2022-11-20T14:31:32;10.50;99.90
15666;DHT22;20725;51.196;3.510;2022-11-20T14:34:25;10.70;99.90
15666;DHT22;20725;51.196;3.510;2022-11-20T14:37:19;10.80;99.90
15666;DHT22;20725;51.196;3.510;2022-11-20T14:39:59;10.50;99.90
15666;DHT22;20725;51.196;3.510;2022-11-20T14:42:44;11.00;99.90
15666;DHT22;20725;51.196;3.510;2022-11-20T14:45:26;11.00;99.90
15666;DHT22;20725;51.196;3.510;2022-11-20T14:48:04;11.30;99.90
15666;DHT22;20725;51.196;3.510;2022-11-20T14:50:43;10.80;99.90
15666;DHT22;20725;51.196;3.510;2022-11-20T14:53:40;10.20;99.90
15666;DHT22;20725;51.196;3.510;2022-11-20T14:56:24;9.60;99.90
15666;DHT22;20725;51.196;3.510;2022-11-20T14:59:07;9.40;99.90
15666;DHT22;20725;51.196;3.510;2022-11-20T15:01:38;9.00;99.90
15666;DHT22;20725;51.196;3.510;2022-11-20T15:04:11;8.90;99.90
15666;DHT22;20725;51.196;3.510;2022-11-20T15:06:54;8.70;99.90
15666;DHT22;20725;51.196;3.510;2022-11-20T15:09:26;8.90;99.90
15666;DHT22;20725;51.196;3.510;2022-11-20T15:12:05;8.60;99.90
15666;DHT22;20725;51.196;3.510;2022-11-20T15:14:36;8.70;99.90
15666;DHT22;20725;51.196;3.510;2022-11-20T15:17:26;8.50;99.90
15666;DHT22;20725;51.196;3.510;2022-11-20T15:19:59;8.40;99.90
15666;DHT22;20725;51.196;3.510;2022-11-20T15:22:42;8.30;99.90
15666;DHT22;20725;51.196;3.510;2022-11-20T15:25:18;8.30;99.90
15666;DHT22;20725;51.196;3.510;2022-11-20T15:27:54;8.20;99.90
15666;DHT22;20725;51.196;3.510;2022-11-20T15:30:33;8.30;99.90
15666;DHT22;20725;51.196;3.510;2022-11-20T15:33:18;8.30;99.90
15666;DHT22;20725;51.196;3.510;2022-11-20T15:36:00;8.40;99.90
15666;DHT22;20725;51.196;3.510;2022-11-20T15:38:32;8.20;99.90
15666;DHT22;20725;51.196;3.510;2022-11-20T15:41:13;8.10;99.90
15666;DHT22;20725;51.196;3.510;2022-11-20T15:43:43;8.00;99.90
15666;DHT22;20725;51.196;3.510;2022-11-20T15:46:26;8.10;99.90
15666;DHT22;20725;51.196;3.510;2022-11-20T15:49:00;8.10;99.90
15666;DHT22;20725;51.196;3.510;2022-11-20T15:51:32;8.10;99.90
15666;DHT22;20725;51.196;3.510;2022-11-20T15:54:16;8.10;99.90
15666;DHT22;20725;51.196;3.510;2022-11-20T15:57:05;8.10;99.90
15666;DHT22;20725;51.196;3.510;2022-11-20T15:59:32;8.00;99.90
15666;DHT22;20725;51.196;3.510;2022-11-20T16:02:08;7.90;99.90
15666;DHT22;20725;51.196;3.510;2022-11-20T16:04:36;7.90;99.90
15666;DHT22;20725;51.196;3.510;2022-11-20T16:07:23;8.00;99.90
15666;DHT22;20725;51.196;3.510;2022-11-20T16:09:52;8.00;99.90
15666;DHT22;20725;51.196;3.510;2022-11-20T16:12:24;8.10;99.90
15666;DHT22;20725;51.196;3.510;2022-11-20T16:15:19;8.20;99.90
15666;DHT22;20725;51.196;3.510;2022-11-20T16:18:12;8.10;99.90
15666;DHT22;20725;51.196;3.510;2022-11-20T16:21:03;7.90;99.90
15666;DHT22;20725;51.196;3.510;2022-11-20T16:23:33;7.80;99.90
15666;DHT22;20725;51.196;3.510;2022-11-20T16:26:12;7.50;99.90
15666;DHT22;20725;51.196;3.510;2022-11-20T16:28:45;7.90;99.90
15666;DHT22;20725;51.196;3.510;2022-11-20T16:31:23;7.90;99.90
15666;DHT22;20725;51.196;3.510;2022-11-20T16:33:57;7.40;99.90
15666;DHT22;20725;51.196;3.510;2022-11-20T16:36:35;7.80;99.90
15666;DHT22;20725;51.196;3.510;2022-11-20T16:39:14;7.60;99.90
15666;DHT22;20725;51.196;3.510;2022-11-20T16:41:49;7.60;99.90
15666;DHT22;20725;51.196;3.510;2022-11-20T16:44:50;7.70;99.90
15666;DHT22;20725;51.196;3.510;2022-11-20T16:47:21;7.30;99.90
15666;DHT22;20725;51.196;3.510;2022-11-20T16:49:53;7.50;99.90
15666;DHT22;20725;51.196;3.510;2022-11-20T16:52:34;7.60;99.90
15666;DHT22;20725;51.196;3.510;2022-11-20T16:55:20;7.40;99.90
15666;DHT22;20725;51.196;3.510;2022-11-20T16:57:51;7.60;99.90
15666;DHT22;20725;51.196;3.510;2022-11-20T17:01:08;7.50;99.90
15666;DHT22;20725;51.196;3.510;2022-11-20T17:03:42;7.60;99.90
15666;DHT22;20725;51.196;3.510;2022-11-20T17:06:13;7.40;99.90
15666;DHT22;20725;51.196;3.510;2022-11-20T17:08:47;7.20;99.90
15666;DHT22;20725;51.196;3.510;2022-11-20T17:11:24;7.10;99.90
15666;DHT22;20725;51.196;3.510;2022-11-20T17:13:54;7.30;99.90
15666;DHT22;20725;51.196;3.510;2022-11-20T17:16:46;7.40;99.90
15666;DHT22;20725;51.196;3.510;2022-11-20T17:19:28;7.20;99.90
15666;DHT22;20725;51.196;3.510;2022-11-20T17:22:11;7.40;99.90
15666;DHT22;20725;51.196;3.510;2022-11-20T17:24:39;7.50;99.90
15666;DHT22;20725;51.196;3.510;2022-11-20T17:27:20;7.60;99.90
15666;DHT22;20725;51.196;3.510;2022-11-20T17:29:54;7.60;99.90
15666;DHT22;20725;51.196;3.510;2022-11-20T17:32:27;7.80;99.90
15666;DHT22;20725;51.196;3.510;2022-11-20T17:35:00;7.60;99.90
15666;DHT22;20725;51.196;3.510;2022-11-20T17:37:34;7.80;99.90
15666;DHT22;20725;51.196;3.510;2022-11-20T17:40:09;7.90;99.90
15666;DHT22;20725;51.196;3.510;2022-11-20T17:42:37;7.70;99.90
15666;DHT22;20725;51.196;3.510;2022-11-20T17:45:07;7.60;99.90
15666;DHT22;20725;51.196;3.510;2022-11-20T17:47:57;7.70;99.90
15666;DHT22;20725;51.196;3.510;2022-11-20T17:50:31;7.50;99.90
15666;DHT22;20725;51.196;3.510;2022-11-20T17:53:07;7.80;99.90
15666;DHT22;20725;51.196;3.510;2022-11-20T17:55:38;7.70;99.90
15666;DHT22;20725;51.196;3.510;2022-11-20T17:58:32;7.80;99.90
15666;DHT22;20725;51.196;3.510;2022-11-20T18:01:06;7.50;99.90
15666;DHT22;20725;51.196;3.510;2022-11-20T18:04:03;7.80;99.90
15666;DHT22;20725;51.196;3.510;2022-11-20T18:06:31;7.80;99.90
15666;DHT22;20725;51.196;3.510;2022-11-20T18:09:07;7.80;99.90
15666;DHT22;20725;51.196;3.510;2022-11-20T18:11:37;7.50;99.90
15666;DHT22;20725;51.196;3.510;2022-11-20T18:14:09;7.70;99.90
15666;DHT22;20725;51.196;3.510;2022-11-20T18:16:58;7.40;99.90
15666;DHT22;20725;51.196;3.510;2022-11-20T18:19:32;7.40;99.90
15666;DHT22;20725;51.196;3.510;2022-11-20T18:22:14;7.40;99.90
15666;DHT22;20725;51.196;3.510;2022-11-20T18:25:01;7.30;99.90
15666;DHT22;20725;51.196;3.510;2022-11-20T18:27:50;7.00;99.90
15666;DHT22;20725;51.196;3.510;2022-11-20T18:30:37;7.00;99.90
15666;DHT22;20725;51.196;3.510;2022-11-20T18:33:10;7.30;99.90